Ray, Illinois
Current Conditions -  °F | °C
As of 9:15 AM on Friday 31 Oct 2014 (Local Time) from KMQB Reporting Station
Clear Clear  
Wind Chill: 23°   Ceiling: Unl
Heat Index: 35°   Visibility: 10mi
Dew Point: 22°   Wind: 22mph
Humidity: 61%   Direction: 350°N
Pressure: 30.33"   Gusts: 33mph
Location:  40.1451°N, 90.5648°W
Report Text: KMQB 311415Z AUTO 35019G29KT 10SM CLR 02/M05 A3033 RMK AO2 T00151053
Loading
Personal Weather Stations






























Interactive Weather Map
Tropical Storm Tracking
New forecast layout! Learn more

10-Day Weather Forecast

Advertisements
Track Severe Weather on mobile